Time;durP1;ratioP1;P1;durP2;ratioP2;P2;SDS_P1;SDS_P2;PMS_P1;PMS_P2;Temp;Humidity;BMP_temperature;BMP_pressure;BME280_temperature;BME280_humidity;BME280_pressure;Samples;Min_cycle;Max_cycle;Signal;HPM_P1;HPM_P2
2022/11/05 00:16:42;;;;;;;7.55;3.10;;;;;;;20.32;51.21;100142.97;5057065;28;20053;-80
2022/11/05 00:16:53;;;;;;;5.05;3.15;;;;;;;20.32;51.46;100156.41;5057514;28;20060;-80
2022/11/05 00:19:20;;;;;;;9.55;3.40;;;;;;;20.32;51.28;100159.94;5056613;28;20041;-81
2022/11/05 00:27:25;;;;;;;4.13;2.70;;;;;;;20.31;51.31;100160.09;5057129;28;20489;-81
2022/11/05 00:29:53;;;;;;;5.60;3.40;;;;;;;20.29;51.06;100154.88;5056979;28;20512;-82
2022/11/05 00:32:22;;;;;;;5.63;2.85;;;;;;;20.31;51.22;100160.94;5039343;28;20053;-82
2022/11/05 00:34:49;;;;;;;6.60;2.28;;;;;;;20.30;51.33;100170.03;5056318;28;20044;-81
2022/11/05 00:37:16;;;;;;;6.13;3.45;;;;;;;20.30;51.06;100166.50;5056241;28;20049;-81
2022/11/05 00:39:44;;;;;;;4.63;2.65;;;;;;;20.29;51.21;100173.69;5056743;28;20523;-82
2022/11/05 00:45:00;;;;;;;5.05;2.90;;;;;;;20.30;51.50;100182.63;5056242;28;20048;-80
2022/11/05 00:50:19;;;;;;;5.07;3.08;;;;;;;20.30;51.15;100182.63;5056783;28;20056;-81
2022/11/05 00:52:55;;;;;;;4.07;2.63;;;;;;;20.29;51.03;100173.69;5056054;28;20048;-81
2022/11/05 00:55:23;;;;;;;6.05;2.60;;;;;;;20.28;51.04;100171.16;5056699;28;20052;-82
2022/11/05 00:57:50;;;;;;;5.78;2.60;;;;;;;20.29;51.25;100173.69;5056933;28;20041;-81
2022/11/05 01:00:18;;;;;;;6.63;2.40;;;;;;;20.28;51.09;100181.91;5056502;28;20045;-81
2022/11/05 01:02:46;;;;;;;4.88;3.08;;;;;;;20.29;51.16;100188.97;5056832;28;20056;-81
2022/11/05 01:05:13;;;;;;;4.72;2.63;;;;;;;20.26;51.10;100190.13;5056259;28;20052;-82
2022/11/05 01:07:41;;;;;;;4.60;2.45;;;;;;;20.25;50.96;100181.25;5054958;28;20060;-81
2022/11/05 01:10:08;;;;;;;4.35;2.67;;;;;;;20.26;51.00;100187.44;5056519;28;20049;-82
2022/11/05 01:12:35;;;;;;;4.22;2.45;;;;;;;20.24;51.22;100198.34;5054818;28;20053;-82
2022/11/05 01:15:03;;;;;;;4.90;2.65;;;;;;;20.25;50.90;100213.50;5054351;28;20049;-81
2022/11/05 01:17:31;;;;;;;6.35;3.15;;;;;;;20.24;50.99;100216.31;5056164;28;20048;-81
2022/11/05 01:19:58;;;;;;;3.92;2.47;;;;;;;20.24;51.06;100217.16;5055662;28;20052;-82
2022/11/05 01:22:25;;;;;;;5.05;2.80;;;;;;;20.24;51.03;100209.09;5056493;28;20495;-82
2022/11/05 01:24:52;;;;;;;5.15;2.45;;;;;;;20.24;51.11;100214.47;5055881;28;20064;-82
2022/11/05 01:27:21;;;;;;;5.35;2.42;;;;;;;20.23;50.86;100217.31;5055004;28;20061;-82
2022/11/05 01:29:48;;;;;;;4.00;2.33;;;;;;;20.23;51.03;100228.91;5055700;28;20388;-82
2022/11/05 01:32:15;;;;;;;5.90;2.47;;;;;;;20.23;50.87;100218.16;5054606;28;20049;-81
2022/11/05 01:34:42;;;;;;;4.00;2.40;;;;;;;20.23;50.89;100222.69;5055469;28;20045;-81
2022/11/05 01:37:10;;;;;;;6.50;2.55;;;;;;;20.22;51.00;100218.31;5054143;28;20052;-81
2022/11/05 01:39:37;;;;;;;3.25;2.03;;;;;;;20.22;51.15;100216.47;5055300;28;20046;-81
2022/11/05 01:42:13;;;;;;;4.97;2.20;;;;;;;20.22;51.16;100210.25;5056172;28;20049;-81
2022/11/05 01:44:46;;;;;;;4.20;2.63;;;;;;;20.22;50.98;100208.41;5055765;28;20051;-81
2022/11/05 01:47:40;;;;;;;3.95;2.53;;;;;;;20.21;51.04;100203.16;5054343;28;20053;-81
2022/11/05 01:50:36;;;;;;;4.30;1.95;;;;;;;20.22;51.13;100207.56;5055432;28;20053;-82
2022/11/05 01:53:10;;;;;;;5.50;2.50;;;;;;;20.21;50.99;100208.53;5045307;28;20049;-81
2022/11/05 01:55:48;;;;;;;3.10;2.00;;;;;;;20.20;51.23;100205.00;5056262;28;20048;-81
2022/11/05 01:58:19;;;;;;;3.53;2.13;;;;;;;20.18;51.14;100204.34;5055976;28;20044;-82
2022/11/05 02:00:46;;;;;;;3.47;1.85;;;;;;;20.19;51.06;100211.41;5055831;28;20483;-81
2022/11/05 02:03:16;;;;;;;3.60;2.00;;;;;;;20.18;50.94;100209.72;5055247;28;20444;-81
2022/11/05 02:05:45;;;;;;;4.43;1.92;;;;;;;20.18;51.10;100198.97;5056195;28;20412;-82
2022/11/05 02:08:21;;;;;;;4.45;2.20;;;;;;;20.18;50.96;100203.50;5054519;28;20396;-82
2022/11/05 02:10:49;;;;;;;4.20;2.33;;;;;;;20.17;51.05;100212.53;5158333;22;20054;-81
2022/11/05 02:13:16;;;;;;;4.30;2.08;;;;;;;20.16;50.98;100206.31;5014328;28;20425;-81
2022/11/05 02:15:46;;;;;;;3.40;2.03;;;;;;;20.17;50.94;100208.00;5015958;28;20046;-81
2022/11/05 02:18:37;;;;;;;3.97;1.98;;;;;;;20.16;50.95;100209.00;5014037;28;20049;-81
2022/11/05 02:21:46;;;;;;;4.57;1.90;;;;;;;20.17;50.99;100207.16;4997670;28;20054;-81
2022/11/05 02:24:32;;;;;;;3.75;1.65;;;;;;;20.17;50.85;100207.16;5032907;28;20064;-81
2022/11/05 02:27:17;;;;;;;2.67;1.77;;;;;;;20.16;51.01;100219.75;5033431;28;20053;-81
2022/11/05 02:30:02;;;;;;;3.22;1.98;;;;;;;20.17;51.14;100223.28;5032937;28;20412;-80
2022/11/05 02:33:00;;;;;;;3.00;1.73;;;;;;;20.16;51.07;100227.81;5032740;28;20050;-80
2022/11/05 02:35:27;;;;;;;4.60;1.65;;;;;;;20.16;51.04;100226.97;5033457;28;20057;-80
2022/11/05 02:38:45;;;;;;;4.20;1.83;;;;;;;20.15;50.75;100236.88;5032494;28;20056;-80
2022/11/05 02:41:32;;;;;;;2.38;1.60;;;;;;;20.16;50.87;100245.78;5001072;28;20064;-81
2022/11/05 02:44:11;;;;;;;3.70;1.90;;;;;;;20.14;50.98;100237.91;5032941;28;20061;-80
2022/11/05 02:46:45;;;;;;;4.93;1.95;;;;;;;20.14;51.02;100240.56;5032455;28;20053;-80
2022/11/05 02:49:29;;;;;;;4.22;1.52;;;;;;;20.14;50.94;100239.75;5032528;28;20057;-80
2022/11/05 02:52:00;;;;;;;4.82;1.80;;;;;;;20.14;51.08;100245.94;5032904;28;20054;-80
2022/11/05 02:54:57;;;;;;;3.28;1.55;;;;;;;20.15;51.28;100254.84;5028148;28;20061;-80
2022/11/05 02:57:28;;;;;;;4.50;1.60;;;;;;;20.14;50.96;100255.88;5014318;28;20042;-80
2022/11/05 03:00:06;;;;;;;4.35;1.75;;;;;;;20.14;51.28;100263.94;5015288;28;20058;-80
2022/11/05 03:02:34;;;;;;;2.95;1.60;;;;;;;20.14;51.21;100267.44;5015588;28;20489;-80
2022/11/05 03:05:02;;;;;;;3.38;1.70;;;;;;;20.12;51.20;100258.69;5013734;28;20076;-81
2022/11/05 03:07:46;;;;;;;3.80;2.00;;;;;;;20.13;51.50;100265.75;5015175;28;20048;-80
2022/11/05 03:10:35;;;;;;;3.95;1.65;;;;;;;20.13;51.77;100281.84;5013533;28;20050;-80
2022/11/05 03:13:16;;;;;;;3.00;1.70;;;;;;;20.13;51.74;100281.03;5014058;28;20053;-80
2022/11/05 03:15:56;;;;;;;3.08;1.75;;;;;;;20.14;51.88;100280.88;5013549;28;20508;-80
2022/11/05 03:18:41;;;;;;;4.90;1.70;;;;;;;20.14;51.79;100282.72;5013572;28;20050;-79
2022/11/05 03:21:20;;;;;;;3.50;1.52;;;;;;;20.13;51.78;100283.72;5017187;28;20053;-79
2022/11/05 03:23:57;;;;;;;3.78;1.48;;;;;;;20.13;51.80;100292.63;5017558;28;20050;-79
2022/11/05 03:26:29;;;;;;;3.63;1.70;;;;;;;20.13;51.89;100275.66;5016990;28;20065;-79
2022/11/05 03:29:05;;;;;;;3.08;1.42;;;;;;;20.11;51.77;100281.19;5018234;28;20482;-80
2022/11/05 03:31:35;;;;;;;3.15;1.50;;;;;;;20.12;51.89;100290.94;5016803;28;20050;-80
2022/11/05 03:34:06;;;;;;;5.60;2.05;;;;;;;20.12;51.80;100293.63;5000910;28;20500;-80
2022/11/05 03:36:43;;;;;;;2.78;1.35;;;;;;;20.12;51.99;100301.69;5018872;28;20054;-79
2022/11/05 03:39:18;;;;;;;3.22;1.33;;;;;;;20.11;52.01;100291.94;5001156;28;20053;-79
2022/11/05 03:41:50;;;;;;;4.15;1.60;;;;;;;20.11;52.07;100300.00;5018484;28;20046;-79
2022/11/05 03:44:24;;;;;;;4.32;1.70;;;;;;;20.12;52.05;100306.22;5017931;28;20401;-80
2022/11/05 03:46:55;;;;;;;3.60;1.55;;;;;;;20.12;52.07;100315.13;5018538;28;20050;-80
2022/11/05 03:49:31;;;;;;;3.28;1.70;;;;;;;20.13;52.04;100315.97;5018474;28;20049;-80
2022/11/05 03:52:13;;;;;;;2.85;1.33;;;;;;;20.12;52.00;100315.13;5018254;28;20057;-79
2022/11/05 03:54:40;;;;;;;2.90;1.50;;;;;;;20.13;51.98;100313.28;5016445;28;20054;-80
2022/11/05 03:57:24;;;;;;;2.30;1.33;;;;;;;20.11;52.22;100316.13;5016650;28;20069;-80
2022/11/05 03:59:52;;;;;;;5.45;1.80;;;;;;;20.11;52.04;100326.03;5017740;28;20045;-79
2022/11/05 04:02:22;;;;;;;3.15;1.38;;;;;;;20.11;52.07;100328.72;5016624;28;20042;-80
2022/11/05 04:04:51;;;;;;;2.83;1.60;;;;;;;20.10;52.23;100335.94;5017933;28;20057;-79
2022/11/05 04:18:23;;;;;;;2.35;1.33;;;;;;;20.10;52.42;100341.31;5017871;28;20042;-80
2022/11/05 04:26:22;;;;;;;2.75;1.40;;;;;;;20.09;52.73;100342.28;5017034;28;20145;-79
2022/11/05 04:31:37;;;;;;;2.65;1.45;;;;;;;20.10;52.47;100356.59;5017250;28;20049;-80
2022/11/05 04:34:04;;;;;;;2.20;1.25;;;;;;;20.08;52.59;100359.41;5016948;28;20060;-80
2022/11/05 04:36:32;;;;;;;2.10;1.20;;;;;;;20.09;52.67;100365.63;5016904;28;20046;-79
2022/11/05 04:38:59;;;;;;;2.53;1.55;;;;;;;20.09;52.52;100360.25;5015906;28;20049;-80
2022/11/05 04:41:26;;;;;;;2.38;1.15;;;;;;;20.09;52.46;100357.56;5016673;28;20382;-80
2022/11/05 04:43:54;;;;;;;2.50;1.20;;;;;;;20.09;52.52;100377.22;5016982;28;20057;-79
2022/11/05 04:46:21;;;;;;;3.08;1.42;;;;;;;20.09;52.40;100371.84;5016675;28;20038;-79
2022/11/05 04:48:48;;;;;;;1.92;1.00;;;;;;;20.08;52.61;100370.16;5016365;28;20042;-79
2022/11/05 04:51:15;;;;;;;3.70;1.55;;;;;;;20.08;52.75;100369.31;5017048;28;20065;-80
2022/11/05 04:53:43;;;;;;;3.05;1.08;;;;;;;20.08;52.61;100375.53;5017096;28;20046;-80
2022/11/05 04:56:30;;;;;;;2.33;1.20;;;;;;;20.08;52.57;100383.59;5015384;28;20050;-79
2022/11/05 04:58:57;;;;;;;2.28;1.27;;;;;;;20.08;52.95;100386.28;5016829;28;20489;-79
2022/11/05 05:01:25;;;;;;;3.45;1.55;;;;;;;20.07;52.55;100384.59;5016963;28;20057;-79
2022/11/05 05:03:53;;;;;;;4.13;1.60;;;;;;;20.08;52.69;100388.97;5016153;28;20053;-80
2022/11/05 05:06:21;;;;;;;3.25;1.20;;;;;;;20.08;52.64;100390.81;5016694;28;20045;-80
2022/11/05 05:08:50;;;;;;;3.13;1.40;;;;;;;20.08;52.83;100382.75;5016194;28;20042;-80
2022/11/05 05:11:20;;;;;;;2.42;1.20;;;;;;;20.06;52.70;100382.91;5015992;28;20057;-80
2022/11/05 05:13:48;;;;;;;3.08;1.52;;;;;;;20.08;52.74;100385.44;5016281;28;20397;-79
2022/11/05 05:16:22;;;;;;;3.40;1.33;;;;;;;20.07;52.62;100389.97;5016034;28;20053;-79
2022/11/05 05:18:49;;;;;;;2.90;1.58;;;;;;;20.07;52.67;100389.97;5016170;28;20046;-79
2022/11/05 05:21:37;;;;;;;2.63;1.30;;;;;;;20.05;52.57;100383.88;5015845;28;20046;-79
2022/11/05 05:24:07;;;;;;;2.50;1.35;;;;;;;20.07;52.64;100394.50;5016310;28;20045;-79
2022/11/05 05:26:37;;;;;;;3.05;1.50;;;;;;;20.06;52.87;100396.34;5016009;28;20053;-83
2022/11/05 05:29:05;;;;;;;2.47;1.27;;;;;;;20.07;53.22;100402.56;5014389;28;20049;-79
2022/11/05 05:31:33;;;;;;;4.18;1.30;;;;;;;20.06;53.65;100399.03;5015702;28;20045;-80
2022/11/05 05:34:01;;;;;;;2.53;1.17;;;;;;;20.06;53.52;100399.03;5014539;28;20061;-80
2022/11/05 05:36:29;;;;;;;2.83;1.20;;;;;;;20.05;53.32;100408.06;5016015;28;20046;-82
2022/11/05 05:38:56;;;;;;;3.85;1.27;;;;;;;20.06;53.44;100417.84;5015753;28;20515;-80
2022/11/05 05:41:24;;;;;;;3.10;1.40;;;;;;;20.05;53.51;100413.44;5015985;28;20042;-82
2022/11/05 05:43:51;;;;;;;2.20;1.33;;;;;;;20.07;53.39;100418.69;5015059;28;20532;-80
2022/11/05 05:46:18;;;;;;;2.83;1.38;;;;;;;20.07;53.54;100421.38;5015957;28;20050;-82
2022/11/05 05:48:50;;;;;;;2.97;0.95;;;;;;;20.05;53.82;100418.81;5016232;28;20045;-81
2022/11/05 05:51:18;;;;;;;2.67;1.33;;;;;;;20.05;53.65;100426.88;5014985;28;20054;-80
2022/11/05 05:53:46;;;;;;;2.17;1.00;;;;;;;20.06;53.81;100415.16;5015379;28;20430;-79
2022/11/05 05:56:14;;;;;;;2.20;1.25;;;;;;;20.04;53.26;100422.50;5015481;28;20053;-79
2022/11/05 05:58:41;;;;;;;1.95;1.08;;;;;;;20.04;53.08;100422.50;5016152;28;20049;-80
2022/11/05 06:01:12;;;;;;;2.95;1.20;;;;;;;20.05;53.00;100440.31;5015407;28;20405;-80
2022/11/05 06:03:46;;;;;;;2.28;1.30;;;;;;;20.05;52.81;100437.63;5014855;28;20054;-80
2022/11/05 06:06:14;;;;;;;2.53;1.20;;;;;;;20.05;53.10;100445.69;5015379;28;20104;-80
2022/11/05 06:08:42;;;;;;;3.47;1.40;;;;;;;20.04;53.16;100446.69;5014444;28;20520;-80
2022/11/05 06:11:09;;;;;;;2.67;1.25;;;;;;;20.05;52.88;100458.28;5015164;28;20049;-80
2022/11/05 06:13:37;;;;;;;3.30;1.15;;;;;;;20.05;52.83;100455.59;4997883;28;20050;-80
2022/11/05 06:16:07;;;;;;;3.10;1.00;;;;;;;20.03;52.93;100461.13;5014669;28;20048;-80
2022/11/05 06:18:35;;;;;;;3.63;1.48;;;;;;;20.03;52.85;100460.28;5015512;28;20049;-80
2022/11/05 06:21:04;;;;;;;4.20;1.30;;;;;;;20.03;52.94;100468.34;5014569;28;20041;-80
2022/11/05 06:23:33;;;;;;;2.38;0.98;;;;;;;20.03;53.14;100468.34;5015825;28;20041;-80
2022/11/05 06:26:05;;;;;;;3.35;1.00;;;;;;;20.04;52.85;100481.63;5015603;28;20382;-80
2022/11/05 06:28:33;;;;;;;2.50;1.02;;;;;;;20.03;52.86;100482.63;5014254;28;20060;-79
2022/11/05 06:31:01;;;;;;;3.05;1.10;;;;;;;20.03;52.87;100484.47;5015519;28;20056;-80
2022/11/05 06:33:28;;;;;;;2.25;0.98;;;;;;;20.01;53.05;100484.56;5015424;28;20061;-80
2022/11/05 06:36:00;;;;;;;2.30;1.00;;;;;;;20.02;53.06;100493.50;5014914;28;20053;-80
2022/11/05 06:38:30;;;;;;;1.90;0.93;;;;;;;20.02;53.38;100499.72;5015020;28;20056;-80
2022/11/05 06:40:58;;;;;;;3.53;0.90;;;;;;;20.01;53.14;100498.00;5016130;28;20046;-80
2022/11/05 06:43:26;;;;;;;1.80;0.88;;;;;;;20.01;52.79;100503.38;5015284;28;20061;-80
2022/11/05 06:45:54;;;;;;;1.60;1.02;;;;;;;20.00;52.73;100510.59;5014950;28;20046;-80
2022/11/05 06:48:24;;;;;;;1.60;0.85;;;;;;;20.00;53.10;100507.91;5014150;28;20038;-79
2022/11/05 06:50:51;;;;;;;2.67;0.98;;;;;;;20.00;53.13;100515.97;5014825;28;20041;-80
2022/11/05 06:53:19;;;;;;;2.53;1.10;;;;;;;19.99;52.95;100516.97;5013710;28;20050;-80
2022/11/05 06:55:46;;;;;;;4.20;1.10;;;;;;;20.00;53.03;100512.44;5017610;28;20061;-80
2022/11/05 06:58:15;;;;;;;2.30;0.93;;;;;;;20.00;53.04;100529.41;5017714;28;20056;-80
2022/11/05 07:00:42;;;;;;;2.10;0.98;;;;;;;20.00;52.83;100520.50;5017740;28;20053;-80
2022/11/05 07:03:10;;;;;;;3.65;1.10;;;;;;;19.99;53.13;100529.56;5018525;28;20057;-80
2022/11/05 07:05:45;;;;;;;3.08;1.00;;;;;;;19.99;53.13;100534.94;5018654;28;20057;-80
2022/11/05 07:08:13;;;;;;;2.78;1.38;;;;;;;19.99;52.80;100537.63;5018448;28;20401;-80
2022/11/05 07:10:40;;;;;;;1.98;1.00;;;;;;;19.99;52.94;100545.69;5018528;28;20046;-80
2022/11/05 07:13:07;;;;;;;2.83;1.05;;;;;;;19.98;52.98;100550.22;5019472;28;20050;-80
2022/11/05 07:15:36;;;;;;;2.83;1.05;;;;;;;19.99;52.99;100559.13;5019120;28;20050;-80
2022/11/05 07:18:06;;;;;;;2.00;1.15;;;;;;;19.99;53.11;100565.34;5018917;28;20043;-80
2022/11/05 07:20:34;;;;;;;2.10;1.10;;;;;;;19.99;53.30;100569.88;5018684;28;20042;-80
2022/11/05 07:23:08;;;;;;;2.38;1.00;;;;;;;19.98;53.22;100578.94;5017301;28;20050;-80
2022/11/05 07:25:36;;;;;;;2.53;0.80;;;;;;;19.98;53.20;100578.94;5018152;28;20413;-80
2022/11/05 07:28:04;;;;;;;2.53;0.90;;;;;;;19.97;53.34;100588.84;5018336;28;20050;-79
2022/11/05 07:30:33;;;;;;;2.65;0.88;;;;;;;19.98;53.03;100600.44;5018838;28;20041;-80
2022/11/05 07:33:01;;;;;;;1.80;0.93;;;;;;;19.98;52.89;100603.13;5018461;28;20049;-80
2022/11/05 07:35:28;;;;;;;2.08;0.98;;;;;;;19.97;52.96;100598.72;5018859;28;20058;-80
2022/11/05 07:37:56;;;;;;;2.83;1.05;;;;;;;19.97;52.96;100602.28;5018259;28;20056;-80
2022/11/05 07:40:26;;;;;;;1.65;0.82;;;;;;;19.96;53.03;100608.63;5018967;28;20045;-80
2022/11/05 07:42:56;;;;;;;2.00;1.00;;;;;;;19.97;53.16;100610.34;5017169;28;20046;-79
2022/11/05 07:45:25;;;;;;;2.33;0.85;;;;;;;19.96;53.02;100614.00;5017787;28;20049;-80
2022/11/05 07:47:55;;;;;;;2.50;0.90;;;;;;;19.96;53.11;100623.88;5018271;28;20045;-79
2022/11/05 07:50:25;;;;;;;1.67;0.73;;;;;;;19.97;53.30;100622.91;5018323;28;20049;-81
2022/11/05 07:53:02;;;;;;;2.25;0.75;;;;;;;19.96;53.16;100621.19;5018552;28;20049;-81
2022/11/05 07:55:29;;;;;;;2.30;0.80;;;;;;;19.96;52.99;100624.72;5000660;28;20505;-81
2022/11/05 07:57:57;;;;;;;2.15;1.05;;;;;;;19.96;53.16;100629.25;5017694;28;20493;-80
2022/11/05 08:00:26;;;;;;;1.38;0.80;;;;;;;19.96;53.23;100626.56;5018025;28;20049;-80
2022/11/05 08:03:00;;;;;;;1.98;1.00;;;;;;;19.96;53.26;100632.78;5017884;28;20416;-80
2022/11/05 08:05:36;;;;;;;2.60;1.00;;;;;;;19.95;53.15;100639.16;5016924;28;20049;-80
2022/11/05 08:08:06;;;;;;;2.42;0.98;;;;;;;19.96;53.13;100642.69;5017649;28;20045;-80
2022/11/05 08:10:34;;;;;;;2.50;1.17;;;;;;;19.96;53.08;100637.31;5017352;28;20537;-80
2022/11/05 08:13:03;;;;;;;4.15;0.80;;;;;;;19.95;52.90;100639.16;5017517;28;20513;-80
2022/11/05 08:15:30;;;;;;;3.00;1.30;;;;;;;19.95;50.60;100649.91;5017309;28;20052;-81
2022/11/05 08:17:58;;;;;;;5.95;1.48;;;;;;;19.94;51.45;100652.75;5017526;28;20050;-86
2022/11/05 08:20:27;;;;;;;1.95;0.80;;;;;;;19.95;52.95;100654.44;5016557;28;20608;-82
2022/11/05 08:22:54;;;;;;;6.07;1.25;;;;;;;19.95;53.09;100651.75;5016714;28;20060;-84
2022/11/05 08:25:23;;;;;;;4.72;1.00;;;;;;;19.94;53.29;100650.06;5016212;28;20544;-80
2022/11/05 08:27:55;;;;;;;3.67;0.90;;;;;;;19.94;53.23;100653.59;5016672;28;20060;-81
2022/11/05 08:30:23;;;;;;;1.90;0.98;;;;;;;19.94;53.57;100655.44;5016719;28;20042;-81
2022/11/05 08:32:50;;;;;;;2.10;0.88;;;;;;;19.94;53.40;100655.44;5017588;28;20477;-81
2022/11/05 08:35:19;;;;;;;2.92;1.40;;;;;;;19.95;53.41;100651.75;5016342;28;20049;-81
2022/11/05 08:37:46;;;;;;;3.17;0.80;;;;;;;19.94;53.25;100658.13;5017418;28;20045;-81
2022/11/05 08:40:13;;;;;;;2.85;1.02;;;;;;;19.94;53.35;100653.59;5016822;28;20042;-81
2022/11/05 08:42:40;;;;;;;2.20;1.00;;;;;;;19.95;53.09;100654.44;5015613;28;20060;-80
2022/11/05 08:45:08;;;;;;;3.03;1.10;;;;;;;19.93;53.12;100651.91;5017440;28;20041;-82
2022/11/05 08:47:35;;;;;;;6.50;1.17;;;;;;;19.94;52.97;100655.44;5017036;28;20049;-81
2022/11/05 08:50:03;;;;;;;3.05;0.85;;;;;;;19.93;53.36;100659.09;5015692;28;20054;-81
2022/11/05 08:52:31;;;;;;;2.88;0.90;;;;;;;19.93;53.32;100664.47;5015464;28;20053;-81
2022/11/05 08:54:58;;;;;;;3.47;1.10;;;;;;;19.93;53.13;100659.97;5015999;28;20076;-82
2022/11/05 08:57:26;;;;;;;2.25;1.20;;;;;;;19.93;53.25;100657.28;5016918;28;20054;-82
2022/11/05 08:59:53;;;;;;;1.90;0.82;;;;;;;19.95;53.34;100670.56;5016596;28;20050;-82
2022/11/05 09:02:20;;;;;;;2.47;1.05;;;;;;;19.95;53.02;100670.56;5016720;28;20504;-79
2022/11/05 09:04:48;;;;;;;4.40;1.52;;;;;;;19.92;50.48;100670.84;5017217;28;20053;-80
2022/11/05 09:07:15;;;;;;;4.60;1.63;;;;;;;19.88;48.62;100677.47;5015273;28;20042;-79
2022/11/05 09:09:42;;;;;;;2.92;1.50;;;;;;;19.82;47.79;100675.34;5016525;28;20053;-79
2022/11/05 09:12:10;;;;;;;4.93;1.65;;;;;;;19.75;47.30;100683.13;5016146;28;20053;-79
2022/11/05 09:14:39;;;;;;;3.35;1.70;;;;;;;19.72;47.34;100678.84;5017452;28;20045;-79
2022/11/05 09:17:20;;;;;;;3.97;1.70;;;;;;;19.69;47.39;100683.69;5016188;28;20050;-83
2022/11/05 09:19:48;;;;;;;3.60;1.98;;;;;;;19.65;47.30;100680.41;5015443;28;20050;-80
2022/11/05 09:22:15;;;;;;;3.80;2.10;;;;;;;19.62;46.78;100680.69;5016612;28;20046;-80
2022/11/05 09:24:42;;;;;;;5.43;2.38;;;;;;;19.57;47.25;100682.91;5017688;28;20052;-80
2022/11/05 09:27:14;;;;;;;3.20;2.03;;;;;;;19.55;47.42;100682.19;5017110;28;20069;-79
2022/11/05 09:29:41;;;;;;;4.55;1.88;;;;;;;19.54;47.03;100691.22;5017046;28;20060;-79
2022/11/05 09:32:09;;;;;;;5.43;1.98;;;;;;;19.52;46.99;100695.88;5015967;28;20402;-79
2022/11/05 09:34:36;;;;;;;3.63;2.10;;;;;;;19.50;46.59;100696.00;5016374;28;20053;-80
2022/11/05 09:37:03;;;;;;;3.47;2.03;;;;;;;19.50;47.19;100701.38;5014909;28;20049;-80
2022/11/05 09:39:31;;;;;;;4.20;2.05;;;;;;;19.50;47.09;100711.28;5015749;28;20046;-80
2022/11/05 09:42:04;;;;;;;3.20;1.65;;;;;;;19.52;47.53;100707.44;5016296;28;20489;-82
2022/11/05 09:44:49;;;;;;;;;;;;;;;19.54;47.29;100706.50;5016801;28;20057;-79
2022/11/05 09:47:23;;;;;;;2.90;1.60;;;;;;;19.54;47.07;100714.53;5014398;28;19928;-79
2022/11/05 09:49:53;;;;;;;3.67;1.77;;;;;;;19.54;47.31;100712.72;5014555;28;20524;-79
2022/11/05 09:52:24;;;;;;;5.93;1.55;;;;;;;19.58;48.02;100710.59;5016069;28;20203;-80
2022/11/05 09:54:53;;;;;;;3.90;1.25;;;;;;;19.60;48.57;100720.19;5015064;28;20046;-79
2022/11/05 09:57:44;;;;;;;4.88;1.58;;;;;;;19.62;49.09;100720.97;5015509;28;20054;-79
2022/11/05 10:00:15;;;;;;;5.95;1.40;;;;;;;19.65;49.30;100723.38;5015962;28;20482;-86
2022/11/05 10:02:52;;;;;;;3.40;1.42;;;;;;;19.66;49.49;100717.03;4999422;28;20065;-85
2022/11/05 10:05:21;;;;;;;4.03;1.20;;;;;;;19.68;49.62;100720.41;5015782;28;20060;-84
2022/11/05 10:07:52;;;;;;;4.45;1.20;;;;;;;19.70;49.79;100726.50;5015699;28;20065;-82
2022/11/05 10:10:43;;;;;;;6.00;1.35;;;;;;;19.72;50.06;100727.19;5016053;28;20045;-80
2022/11/05 10:13:22;;;;;;;2.72;1.15;;;;;;;19.75;49.84;100723.41;5014312;28;20058;-80
2022/11/05 10:16:27;;;;;;;2.95;1.25;;;;;;;19.76;50.14;100728.63;5014821;28;20500;-80
2022/11/05 10:19:08;;;;;;;6.10;1.20;;;;;;;19.79;50.19;100724.81;4999480;28;20481;-79
2022/11/05 10:21:37;;;;;;;3.15;1.42;;;;;;;19.80;50.86;100725.66;5015135;28;20045;-79
2022/11/05 10:24:24;;;;;;;2.47;1.20;;;;;;;19.81;50.24;100722.00;5007147;28;20050;-79
2022/11/05 10:26:53;;;;;;;2.90;0.90;;;;;;;19.81;50.13;100722.88;5014608;28;20528;-79
2022/11/05 10:29:28;;;;;;;2.13;1.13;;;;;;;19.82;50.37;100721.03;5014267;28;20509;-80
2022/11/05 10:31:57;;;;;;;8.48;1.70;;;;;;;19.83;50.37;100720.03;5014796;28;20057;-80
2022/11/05 10:34:29;;;;;;;3.20;1.13;;;;;;;19.83;51.03;100720.88;5014889;28;20046;-79
2022/11/05 10:36:57;;;;;;;3.20;1.17;;;;;;;19.85;51.93;100718.03;5013123;28;20064;-79
2022/11/05 10:39:26;;;;;;;4.22;1.50;;;;;;;19.85;51.56;100710.84;5014693;28;20046;-80
2022/11/05 10:42:30;;;;;;;8.57;1.80;;;;;;;19.86;51.98;100712.56;5014911;28;20485;-80
2022/11/05 10:45:33;;;;;;;7.13;1.50;;;;;;;19.88;50.90;100712.41;5014336;28;20053;-86
2022/11/05 10:48:20;;;;;;;6.18;1.50;;;;;;;19.90;51.83;100716.66;5015374;28;20065;-82
2022/11/05 10:50:48;;;;;;;9.65;1.63;;;;;;;19.96;51.35;100720.63;5014249;28;20409;-91
2022/11/05 10:53:21;;;;;;;7.15;1.50;;;;;;;20.05;50.87;100710.88;5010236;28;20046;-79
2022/11/05 10:55:50;;;;;;;5.37;1.30;;;;;;;20.06;49.76;100715.28;5009137;28;20401;-80
2022/11/05 10:58:26;;;;;;;4.30;1.50;;;;;;;20.07;49.24;100711.59;5013301;28;20291;-78
2022/11/05 11:00:53;;;;;;;5.75;1.30;;;;;;;20.06;48.01;100705.38;4998346;28;20060;-80
2022/11/05 11:03:50;;;;;;;5.80;1.90;;;;;;;20.04;48.62;100706.50;5014700;28;20045;-82
2022/11/05 11:06:29;;;;;;;5.85;1.63;;;;;;;20.04;52.82;100710.03;5012980;28;20057;-79
2022/11/05 11:09:05;;;;;;;3.50;1.45;;;;;;;20.01;54.88;100702.22;5011066;28;20397;-80
2022/11/05 11:11:40;;;;;;;6.75;2.10;;;;;;;19.97;55.48;100715.13;5013916;28;20046;-80
2022/11/05 11:14:10;;;;;;;6.25;2.45;;;;;;;19.94;56.78;100714.56;5007981;28;20432;-79
2022/11/05 11:16:44;;;;;;;9.18;3.28;;;;;;;19.89;54.84;100711.41;5014555;28;20046;-80
2022/11/05 11:19:32;;;;;;;5.38;2.70;;;;;;;19.88;56.47;100717.78;5014715;28;20045;-80
2022/11/05 11:22:02;;;;;;;7.70;3.03;;;;;;;19.85;57.34;100713.53;5014805;28;20046;-79
2022/11/05 11:24:37;;;;;;;8.90;3.30;;;;;;;19.82;53.41;100712.97;5014330;28;20057;-79
2022/11/05 11:27:30;;;;;;;5.78;2.25;;;;;;;19.79;55.42;100708.72;5014833;28;20058;-84
2022/11/05 11:30:01;;;;;;;3.65;2.28;;;;;;;19.77;51.04;100710.69;5014263;28;20061;-85
2022/11/05 11:32:38;;;;;;;4.47;2.10;;;;;;;19.78;51.70;100711.53;5014441;28;20050;-81
2022/11/05 11:35:17;;;;;;;3.83;2.00;;;;;;;19.78;57.72;100716.91;5014675;28;20453;-80
2022/11/05 11:37:45;;;;;;;5.20;3.33;;;;;;;19.74;57.47;100713.66;5014658;28;20053;-84
2022/11/05 11:40:18;;;;;;;6.63;3.65;;;;;;;19.73;57.86;100712.81;5021767;28;20060;-84
2022/11/05 11:42:54;;;;;;;4.68;3.28;;;;;;;19.71;57.70;100713.91;5018597;28;20421;-81
2022/11/05 11:45:48;;;;;;;7.55;3.80;;;;;;;19.69;57.85;100716.75;5019929;28;20409;-80
2022/11/05 11:48:23;;;;;;;4.43;2.92;;;;;;;19.67;58.67;100718.72;5018070;28;20057;-80
2022/11/05 11:50:56;;;;;;;6.15;3.45;;;;;;;19.67;58.78;100718.72;5016585;28;20050;-83
2022/11/05 11:53:35;;;;;;;5.95;3.03;;;;;;;19.67;58.37;100715.19;5014255;28;20053;-81
2022/11/05 11:56:11;;;;;;;5.60;3.40;;;;;;;19.66;57.67;100718.84;5017275;28;20057;-82
2022/11/05 11:58:44;;;;;;;5.18;3.47;;;;;;;19.65;58.54;100709.97;5017685;28;20049;-81
2022/11/05 12:01:24;;;;;;;6.80;3.72;;;;;;;19.65;58.25;100712.66;5017202;28;20046;-81
2022/11/05 12:04:14;;;;;;;7.43;4.82;;;;;;;19.65;59.65;100720.69;5015312;28;20054;-82
2022/11/05 12:07:15;;;;;;;5.85;4.50;;;;;;;19.64;59.58;100721.66;5015497;28;20501;-85
2022/11/05 12:10:21;;;;;;;8.65;5.30;;;;;;;19.65;58.84;100719.84;5016320;28;20057;-83
2022/11/05 12:13:12;;;;;;;6.85;4.93;;;;;;;19.63;59.06;100721.81;5015984;28;20494;-83
2022/11/05 12:15:48;;;;;;;7.93;5.35;;;;;;;19.64;58.89;100720.81;5016880;28;20049;-83
2022/11/05 12:18:24;;;;;;;8.57;5.78;;;;;;;19.63;59.00;100725.34;5017276;28;20046;-83
2022/11/05 12:21:12;;;;;;;7.82;4.95;;;;;;;19.63;59.06;100719.97;5017669;28;20153;-82
2022/11/05 12:23:52;;;;;;;9.80;5.82;;;;;;;19.62;59.10;100726.34;5017187;28;20056;-82
2022/11/05 12:26:35;;;;;;;6.53;4.35;;;;;;;19.62;58.85;100722.81;5015929;28;20121;-82
2022/11/05 12:29:12;;;;;;;8.98;5.25;;;;;;;19.62;58.97;100723.66;5016622;28;20418;-82
2022/11/05 12:31:53;;;;;;;7.60;4.57;;;;;;;19.62;59.41;100726.34;5016595;28;20052;-81
2022/11/05 12:34:39;;;;;;;6.93;3.67;;;;;;;19.62;58.30;100729.03;5017450;28;20049;-82